createdAt,value
2022-11-21T00:00:59.208Z,100016.56
2022-11-21T00:02:10.049Z,100023.88
2022-11-21T00:03:12.362Z,100018.59
2022-11-21T00:04:14.824Z,100027.59
2022-11-21T00:05:16.598Z,100031.19
2022-11-21T00:06:19.506Z,100030.50
2022-11-21T00:07:21.157Z,100030.03
2022-11-21T00:08:23.685Z,100013.59
2022-11-21T00:09:25.297Z,100018.03
2022-11-21T00:10:27.762Z,100019.22
2022-11-21T00:11:29.246Z,100020.31
2022-11-21T00:12:31.778Z,100024.03
2022-11-21T00:13:33.269Z,100016.38
2022-11-21T00:14:35.877Z,100016.38
2022-11-21T00:15:39.347Z,100019.97
2022-11-21T00:16:41.847Z,100016.47
2022-11-21T00:17:43.362Z,100021.75
2022-11-21T00:18:45.860Z,100015.63
2022-11-21T00:19:47.385Z,100024.50
2022-11-21T00:20:49.979Z,100027.25
2022-11-21T00:21:51.486Z,100023.06
2022-11-21T00:22:53.966Z,100036.50
2022-11-21T00:23:55.436Z,100032.19
2022-11-21T00:24:57.895Z,100033.13
2022-11-21T00:25:59.447Z,100035.75
2022-11-21T00:27:01.930Z,100040.34
2022-11-21T00:28:03.664Z,100042.03
2022-11-21T00:29:06.100Z,100044.75
2022-11-21T00:30:10.041Z,100034.34
2022-11-21T00:31:21.464Z,100040.56
2022-11-21T00:32:23.225Z,100046.56
2022-11-21T00:33:25.797Z,100045.59
2022-11-21T00:34:27.654Z,100038.63
2022-11-21T00:35:32.168Z,100046.56
2022-11-21T00:36:33.974Z,100052.81
2022-11-21T00:37:36.588Z,100051.13
2022-11-21T00:38:38.147Z,100046.09
2022-11-21T00:39:40.786Z,100046.19
2022-11-21T00:40:42.692Z,100054.34
2022-11-21T00:41:45.218Z,100057.81
2022-11-21T00:42:46.725Z,100054.56
2022-11-21T00:43:49.258Z,100046.78
2022-11-21T00:44:50.818Z,100046.19
2022-11-21T00:45:53.688Z,100048.94
2022-11-21T00:46:56.637Z,100057.78
2022-11-21T00:47:59.115Z,100054.44
2022-11-21T00:49:00.710Z,100046.63
2022-11-21T00:50:03.216Z,100056.47
2022-11-21T00:51:04.689Z,100065.47
2022-11-21T00:52:07.153Z,100062.22
2022-11-21T00:53:08.649Z,100050.94
2022-11-21T00:54:11.306Z,100058.00
2022-11-21T00:55:12.794Z,100049.25
2022-11-21T00:56:15.243Z,100059.69
2022-11-21T00:57:16.837Z,100057.88
2022-11-21T00:58:19.358Z,100057.03
2022-11-21T00:59:20.843Z,100057.03
2022-11-21T01:00:23.521Z,100051.78
2022-11-21T01:01:25.138Z,100052.75
2022-11-21T01:02:29.062Z,100044.84
2022-11-21T01:03:32.365Z,100054.53
2022-11-21T01:04:36.262Z,100054.41
2022-11-21T01:05:37.766Z,100056.94
2022-11-21T01:06:40.251Z,100054.41
2022-11-21T01:07:41.801Z,100056.09
2022-11-21T01:08:45.540Z,100058.72
2022-11-21T01:09:47.106Z,100049.03
2022-11-21T01:10:49.611Z,100049.03
2022-11-21T01:11:51.221Z,100050.81
2022-11-21T01:12:53.713Z,100055.16
2022-11-21T01:13:55.266Z,100057.03
2022-11-21T01:14:57.877Z,100062.44
2022-11-21T01:16:03.696Z,100056.56
2022-11-21T01:17:06.229Z,100058.59
2022-11-21T01:18:10.063Z,100057.88
2022-11-21T01:19:12.607Z,100056.28
2022-11-21T01:20:14.123Z,100059.91
2022-11-21T01:21:18.868Z,100052.94
2022-11-21T01:22:20.375Z,100052.84
2022-11-21T01:23:22.912Z,100063.25
2022-11-21T01:24:24.496Z,100063.25
2022-11-21T01:25:27.178Z,100057.88
2022-11-21T01:26:30.330Z,100062.31
2022-11-21T01:27:33.874Z,100066.59
2022-11-21T01:28:35.648Z,100063.97
2022-11-21T01:29:38.187Z,100065.78
2022-11-21T01:30:39.814Z,100064.94
2022-11-21T01:31:42.334Z,100071.06
2022-11-21T01:32:47.388Z,100068.50
2022-11-21T01:33:51.830Z,100068.75
2022-11-21T01:34:53.374Z,100071.47
2022-11-21T01:35:55.817Z,100085.72
2022-11-21T01:36:57.410Z,100077.97
2022-11-21T01:37:59.853Z,100075.31
2022-11-21T01:39:03.315Z,100082.25
2022-11-21T01:40:06.635Z,100074.25
2022-11-21T01:41:08.729Z,100078.69
2022-11-21T01:42:13.647Z,100083.09
2022-11-21T01:43:16.401Z,100080.59
2022-11-21T01:44:20.755Z,100071.94
2022-11-21T01:45:53.094Z,100075.66
2022-11-21T01:46:55.708Z,100076.84
2022-11-21T01:47:57.501Z,100075.28
2022-11-21T01:49:05.710Z,100074.66
2022-11-21T01:50:12.813Z,100080.16
2022-11-21T01:51:20.268Z,100077.75
2022-11-21T01:52:27.012Z,100075.34
2022-11-21T01:53:28.846Z,100070.06
2022-11-21T01:54:37.575Z,100069.22
2022-11-21T01:55:39.110Z,100075.34
2022-11-21T01:56:45.697Z,100075.34
2022-11-21T01:57:49.471Z,100070.06
2022-11-21T01:58:54.607Z,100079.53
2022-11-21T01:59:59.881Z,100079.66
2022-11-21T02:01:03.583Z,100086.59
2022-11-21T02:02:09.566Z,100076.28
2022-11-21T02:03:15.906Z,100085.16
2022-11-21T02:04:20.723Z,100084.31
2022-11-21T02:05:25.452Z,100088.75
2022-11-21T02:06:28.764Z,100079.91
2022-11-21T02:07:34.868Z,100080.84
2022-11-21T02:08:38.206Z,100080.00
2022-11-21T02:09:44.485Z,100077.47
2022-11-21T02:10:53.714Z,100077.47
2022-11-21T02:12:01.003Z,100075.78
2022-11-21T02:13:02.551Z,100075.66
2022-11-21T02:14:05.190Z,100066.81
2022-11-21T02:15:08.146Z,100067.66
2022-11-21T02:16:10.751Z,100057.22
2022-11-21T02:17:12.358Z,100066.81
2022-11-21T02:18:14.834Z,100061.56
2022-11-21T02:19:24.290Z,100066.72
2022-11-21T02:20:29.008Z,100072.94
2022-11-21T02:21:41.951Z,100065.75
2022-11-21T02:22:53.468Z,100070.06
2022-11-21T02:24:00.965Z,100067.44
2022-11-21T02:25:07.999Z,100076.06
2022-11-21T02:26:10.779Z,100071.63
2022-11-21T02:27:13.676Z,100080.38
2022-11-21T02:28:19.249Z,100083.97
2022-11-21T02:29:21.979Z,100081.31
2022-11-21T02:30:23.806Z,100085.75
2022-11-21T02:31:26.288Z,100081.31
2022-11-21T02:32:33.508Z,100081.22
2022-11-21T02:33:36.239Z,100086.38
2022-11-21T02:34:37.740Z,100088.91
2022-11-21T02:35:40.938Z,100080.88
2022-11-21T02:36:45.707Z,100090.59
2022-11-21T02:37:52.760Z,100089.75
2022-11-21T02:38:54.270Z,100083.50
2022-11-21T02:40:00.219Z,100093.09
2022-11-21T02:41:13.022Z,100085.94
2022-11-21T02:42:20.951Z,100094.56
2022-11-21T02:43:24.665Z,100088.44
2022-11-21T02:44:32.862Z,100084.97
2022-11-21T02:45:39.018Z,100087.50
2022-11-21T02:46:48.954Z,100083.19
2022-11-21T02:47:58.158Z,100089.28
2022-11-21T02:49:07.970Z,100084.88
2022-11-21T02:50:14.548Z,100082.47
2022-11-21T02:51:16.194Z,100080.66
2022-11-21T02:52:18.649Z,100072.03
2022-11-21T02:53:20.309Z,100076.44
2022-11-21T02:54:22.825Z,100069.53
2022-11-21T02:55:25.129Z,100076.44
2022-11-21T02:56:28.961Z,100075.59
2022-11-21T02:57:30.933Z,100077.28
2022-11-21T02:58:33.413Z,100086.03
2022-11-21T02:59:34.896Z,100091.53
2022-11-21T03:00:40.954Z,100089.84
2022-11-21T03:01:42.553Z,100090.91
2022-11-21T03:02:45.715Z,100088.50
2022-11-21T03:03:47.294Z,100085.16
2022-11-21T03:04:49.898Z,100085.03
2022-11-21T03:05:51.554Z,100088.50
2022-11-21T03:06:54.052Z,100084.94
2022-11-21T03:07:55.570Z,100090.22
2022-11-21T03:08:58.103Z,100083.00
2022-11-21T03:09:59.636Z,100086.38
2022-11-21T03:11:02.097Z,100082.78
2022-11-21T03:12:08.466Z,100080.88
2022-11-21T03:13:10.057Z,100087.81
2022-11-21T03:14:12.758Z,100089.53
2022-11-21T03:15:15.605Z,100088.56
2022-11-21T03:16:19.160Z,100083.31
2022-11-21T03:17:20.665Z,100084.03
2022-11-21T03:18:23.140Z,100081.38
2022-11-21T03:19:24.653Z,100084.88
2022-11-21T03:20:27.184Z,100085.72
2022-11-21T03:21:28.682Z,100086.53
2022-11-21T03:22:31.235Z,100085.72
2022-11-21T03:23:32.776Z,100078.75
2022-11-21T03:24:35.622Z,100082.34
2022-11-21T03:25:37.204Z,100080.66
2022-11-21T03:26:39.700Z,100084.25
2022-11-21T03:27:42.698Z,100077.28
2022-11-21T03:28:45.213Z,100079.94
2022-11-21T03:29:46.946Z,100077.28
2022-11-21T03:30:49.397Z,100084.34
2022-11-21T03:31:50.966Z,100080.88
2022-11-21T03:32:56.404Z,100084.34
2022-11-21T03:33:57.925Z,100083.50
2022-11-21T03:35:00.418Z,100079.31
2022-11-21T03:36:01.956Z,100084.72
2022-11-21T03:37:04.831Z,100084.72
2022-11-21T03:38:06.319Z,100084.72
2022-11-21T03:39:09.238Z,100090.81
2022-11-21T03:40:11.853Z,100096.91
2022-11-21T03:41:28.283Z,100089.00
2022-11-21T03:42:30.743Z,100093.31
2022-11-21T03:43:33.605Z,100089.75
2022-11-21T03:44:36.064Z,100091.41
2022-11-21T03:45:37.686Z,100089.63
2022-11-21T03:46:42.466Z,100102.78
2022-11-21T03:47:43.968Z,100094.03
2022-11-21T03:48:46.464Z,100089.63
2022-11-21T03:49:48.975Z,100092.38
2022-11-21T03:50:51.509Z,100095.72
2022-11-21T03:51:52.997Z,100098.38
2022-11-21T03:52:55.432Z,100091.31
2022-11-21T03:53:57.349Z,100094.78
2022-11-21T03:54:59.953Z,100092.16
2022-11-21T03:56:01.512Z,100090.47
2022-11-21T03:57:04.176Z,100099.22
2022-11-21T03:58:05.854Z,100097.41
2022-11-21T03:59:09.777Z,100089.53
2022-11-21T04:00:13.034Z,100092.16
2022-11-21T04:01:16.122Z,100088.56
2022-11-21T04:02:17.636Z,100089.38
2022-11-21T04:03:20.211Z,100088.44
2022-11-21T04:04:21.742Z,100084.03
2022-11-21T04:05:24.201Z,100083.19
2022-11-21T04:06:26.150Z,100085.72
2022-11-21T04:07:30.235Z,100088.34
2022-11-21T04:08:32.413Z,100083.19
2022-11-21T04:09:34.928Z,100092.03
2022-11-21T04:10:36.414Z,100089.53
2022-11-21T04:11:38.975Z,100096.47
2022-11-21T04:12:40.499Z,100098.28
2022-11-21T04:13:43.439Z,100093.00
2022-11-21T04:14:46.293Z,100095.63
2022-11-21T04:15:48.782Z,100096.47
2022-11-21T04:16:50.362Z,100096.34
2022-11-21T04:17:52.975Z,100097.19
2022-11-21T04:18:54.541Z,100102.34
2022-11-21T04:19:57.022Z,100101.53
2022-11-21T04:20:59.309Z,100096.25
2022-11-21T04:22:01.845Z,100094.56
2022-11-21T04:23:03.536Z,100088.44
2022-11-21T04:24:07.044Z,100092.03
2022-11-21T04:25:08.726Z,100092.88
2022-11-21T04:26:11.238Z,100091.09
2022-11-21T04:27:12.845Z,100090.97
2022-11-21T04:28:15.466Z,100099.59
2022-11-21T04:29:17.057Z,100091.69
2022-11-21T04:30:20.920Z,100104.88
2022-11-21T04:31:22.421Z,100104.88
2022-11-21T04:32:24.929Z,100103.19
2022-11-21T04:33:26.445Z,100110.13
2022-11-21T04:34:29.492Z,100113.72
2022-11-21T04:35:31.309Z,100115.41
2022-11-21T04:36:33.857Z,100108.44
2022-11-21T04:37:35.490Z,100105.09
2022-11-21T04:38:38.120Z,100100.69
2022-11-21T04:39:39.631Z,100098.75
2022-11-21T04:40:44.342Z,100101.38
2022-11-21T04:41:45.869Z,100094.31
2022-11-21T04:42:49.186Z,100096.03
2022-11-21T04:43:50.696Z,100097.91
2022-11-21T04:44:53.233Z,100097.91
2022-11-21T04:45:56.059Z,100092.78
2022-11-21T04:47:04.889Z,100099.81
2022-11-21T04:48:07.178Z,100096.25
2022-11-21T04:49:09.609Z,100093.63
2022-11-21T04:50:12.918Z,100094.56
2022-11-21T04:51:15.369Z,100088.44
2022-11-21T04:52:16.908Z,100087.59
2022-11-21T04:53:19.420Z,100088.44
2022-11-21T04:54:21.001Z,100084.03
2022-11-21T04:55:26.578Z,100083.88
2022-11-21T04:56:28.215Z,100083.78
2022-11-21T04:57:32.099Z,100090.75
2022-11-21T04:58:33.677Z,100082.72
2022-11-21T04:59:36.258Z,100083.56
2022-11-21T05:00:37.793Z,100086.19
2022-11-21T05:01:41.605Z,100090.38
2022-11-21T05:02:43.251Z,100088.59
2022-11-21T05:03:45.732Z,100093.63
2022-11-21T05:04:47.385Z,100088.38
2022-11-21T05:05:50.028Z,100086.59
2022-11-21T05:06:51.590Z,100079.53
2022-11-21T05:07:54.026Z,100080.38
2022-11-21T05:08:55.543Z,100071.63
2022-11-21T05:09:58.222Z,100074.25
2022-11-21T05:11:18.645Z,100073.41
2022-11-21T05:12:38.763Z,100073.63
2022-11-21T05:13:40.299Z,100076.38
2022-11-21T05:14:42.883Z,100078.28
2022-11-21T05:15:45.075Z,100078.28
2022-11-21T05:16:48.967Z,100070.28
2022-11-21T05:17:50.495Z,100069.31
2022-11-21T05:18:52.921Z,100065.63
2022-11-21T05:19:54.529Z,100063.00
2022-11-21T05:20:57.558Z,100068.97
2022-11-21T05:21:59.070Z,100066.22
2022-11-21T05:23:01.538Z,100062.63
2022-11-21T05:24:04.086Z,100067.06
2022-11-21T05:25:06.248Z,100059.06
2022-11-21T05:26:08.763Z,100059.91
2022-11-21T05:27:10.447Z,100058.91
2022-11-21T05:28:13.063Z,100061.47
2022-11-21T05:29:14.611Z,100047.44
2022-11-21T05:30:17.381Z,100055.25
2022-11-21T05:31:18.917Z,100053.41
2022-11-21T05:32:22.897Z,100055.09
2022-11-21T05:33:24.404Z,100057.75
2022-11-21T05:34:27.390Z,100058.59
2022-11-21T05:35:29.175Z,100054.16
2022-11-21T05:36:32.008Z,100055.84
2022-11-21T05:37:33.611Z,100054.16
2022-11-21T05:38:36.231Z,100061.13
2022-11-21T05:39:37.743Z,100055.84
2022-11-21T05:40:40.510Z,100058.34
2022-11-21T05:41:43.032Z,100060.88
2022-11-21T05:43:03.578Z,100057.28
2022-11-21T05:44:05.350Z,100058.97
2022-11-21T05:45:09.327Z,100055.38
2022-11-21T05:46:10.816Z,100062.31
2022-11-21T05:47:13.276Z,100069.28
2022-11-21T05:48:16.289Z,100065.69
2022-11-21T05:49:18.794Z,100073.59
2022-11-21T05:50:20.331Z,100072.63
2022-11-21T05:51:23.467Z,100074.31
2022-11-21T05:52:25.016Z,100060.19
2022-11-21T05:53:27.776Z,100068.09
2022-11-21T05:54:29.516Z,100072.41
2022-11-21T05:55:34.653Z,100061.03
2022-11-21T05:56:37.089Z,100061.88
2022-11-21T05:57:38.620Z,100061.03
2022-11-21T05:58:41.347Z,100058.50
2022-11-21T05:59:42.846Z,100050.59
2022-11-21T06:00:45.419Z,100062.06
2022-11-21T06:02:05.361Z,100056.81
2022-11-21T06:03:27.780Z,100053.22
2022-11-21T06:04:31.735Z,100056.59
2022-11-21T06:05:33.340Z,100053.22
2022-11-21T06:06:36.402Z,100057.53
2022-11-21T06:07:37.948Z,100052.28
2022-11-21T06:08:41.969Z,100060.19
2022-11-21T06:09:43.541Z,100060.91
2022-11-21T06:10:46.051Z,100052.97
2022-11-21T06:11:47.603Z,100054.69
2022-11-21T06:12:50.185Z,100055.38
2022-11-21T06:13:53.425Z,100047.47
2022-11-21T06:14:54.967Z,100049.16
2022-11-21T06:16:01.410Z,100055.16
2022-11-21T06:17:03.034Z,100048.94
2022-11-21T06:18:05.464Z,100045.34
2022-11-21T06:19:07.092Z,100044.50
2022-11-21T06:20:12.368Z,100044.50
2022-11-21T06:21:16.087Z,100047.13
2022-11-21T06:22:18.625Z,100047.97
2022-11-21T06:23:21.373Z,100047.00
2022-11-21T06:24:22.867Z,100047.97
2022-11-21T06:25:25.561Z,100036.47
2022-11-21T06:26:28.008Z,100041.72
2022-11-21T06:27:30.588Z,100043.41
2022-11-21T06:28:33.969Z,100047.75
2022-11-21T06:29:36.684Z,100048.47
2022-11-21T06:30:39.520Z,100050.16
2022-11-21T06:31:41.970Z,100036.00
2022-11-21T06:32:43.544Z,100032.41
2022-11-21T06:33:46.897Z,100033.25
2022-11-21T06:34:48.487Z,100036.63
2022-11-21T06:35:52.329Z,100038.28
2022-11-21T06:36:54.169Z,100040.81
2022-11-21T06:37:57.674Z,100042.47
2022-11-21T06:38:59.191Z,100049.44
2022-11-21T06:40:01.741Z,100042.47
2022-11-21T06:41:07.368Z,100040.69
2022-11-21T06:42:09.908Z,100036.13
2022-11-21T06:43:11.402Z,100035.28
2022-11-21T06:44:14.005Z,100034.34
2022-11-21T06:45:15.745Z,100030.72
2022-11-21T06:46:18.702Z,100030.88
2022-11-21T06:47:20.477Z,100035.16
2022-11-21T06:48:22.932Z,100039.50
2022-11-21T06:49:24.507Z,100036.00
2022-11-21T06:50:27.017Z,100040.34
2022-11-21T06:51:29.966Z,100040.34
2022-11-21T06:52:33.639Z,100040.34
2022-11-21T06:53:35.401Z,100041.19
2022-11-21T06:54:38.129Z,100045.47
2022-11-21T06:55:40.640Z,100044.53
2022-11-21T06:56:42.189Z,100040.09
2022-11-21T06:57:44.694Z,100039.25
2022-11-21T06:58:46.219Z,100040.09
2022-11-21T06:59:48.731Z,100040.09
2022-11-21T07:00:51.359Z,100040.94
2022-11-21T07:01:53.856Z,100040.94
2022-11-21T07:03:02.926Z,100034.69
2022-11-21T07:04:06.122Z,100039.84
2022-11-21T07:05:08.277Z,100043.34
2022-11-21T07:06:10.755Z,100041.53
2022-11-21T07:07:13.756Z,100044.88
2022-11-21T07:08:16.554Z,100039.59
2022-11-21T07:09:32.715Z,100039.59
2022-11-21T07:10:36.428Z,100037.69
2022-11-21T07:11:37.913Z,100034.94
2022-11-21T07:12:58.053Z,100040.22
2022-11-21T07:14:03.707Z,100033.00
2022-11-21T07:15:09.166Z,100040.81
2022-11-21T07:16:14.710Z,100037.22
2022-11-21T07:17:16.332Z,100036.38
2022-11-21T07:18:18.854Z,100038.88
2022-11-21T07:19:20.376Z,100039.72
2022-11-21T07:20:23.317Z,100036.13
2022-11-21T07:21:24.786Z,100036.00
2022-11-21T07:22:28.573Z,100029.78
2022-11-21T07:23:31.309Z,100030.63
2022-11-21T07:24:33.848Z,100029.69
2022-11-21T07:25:36.927Z,100023.41
2022-11-21T07:26:39.611Z,100025.94
2022-11-21T07:27:41.195Z,100018.03
2022-11-21T07:28:43.976Z,100013.47
2022-11-21T07:29:45.526Z,100015.16
2022-11-21T07:30:48.091Z,100007.22
2022-11-21T07:31:49.606Z,100009.88
2022-11-21T07:32:56.359Z,100015.00
2022-11-21T07:33:58.887Z,100019.47
2022-11-21T07:35:00.404Z,100016.84
2022-11-21T07:36:02.994Z,100019.34
2022-11-21T07:37:05.453Z,100021.03
2022-11-21T07:38:09.297Z,100019.09
2022-11-21T07:39:10.774Z,100011.19
2022-11-21T07:40:14.471Z,100004.09
2022-11-21T07:41:16.014Z,100011.06
2022-11-21T07:42:18.543Z,100020.63
2022-11-21T07:43:20.128Z,100009.13
2022-11-21T07:44:22.589Z,100016.09
2022-11-21T07:45:24.104Z,100020.28
2022-11-21T07:46:26.623Z,100022.81
2022-11-21T07:47:29.200Z,100014.91
2022-11-21T07:48:30.775Z,100019.19
2022-11-21T07:49:33.455Z,100030.34
2022-11-21T07:50:35.092Z,100014.50
2022-11-21T07:51:37.840Z,100020.53
2022-11-21T07:52:40.515Z,100022.13
2022-11-21T07:53:44.427Z,100024.63
2022-11-21T07:54:46.928Z,100018.53
2022-11-21T07:55:48.492Z,100019.22
2022-11-21T07:56:51.049Z,100018.28
2022-11-21T07:58:01.024Z,100020.78
2022-11-21T07:59:02.615Z,100014.66
2022-11-21T08:00:05.757Z,100023.31
2022-11-21T08:01:08.661Z,100011.91
2022-11-21T08:02:18.854Z,100016.09
2022-11-21T08:03:22.522Z,100016.78
2022-11-21T08:04:25.097Z,100011.50
2022-11-21T08:05:27.057Z,100000.84
2022-11-21T08:06:29.526Z,100004.19
2022-11-21T08:07:34.806Z,99999.75
2022-11-21T08:08:37.303Z,99994.47
2022-11-21T08:09:40.509Z,99997.09
2022-11-21T08:10:44.630Z,99994.34
2022-11-21T08:11:46.173Z,99995.22
2022-11-21T08:12:48.614Z,99992.44
2022-11-21T08:13:51.065Z,99984.50
2022-11-21T08:14:52.608Z,99980.75
2022-11-21T08:15:55.064Z,99976.22
2022-11-21T08:16:56.603Z,99981.50
2022-11-21T08:17:59.125Z,99982.19
2022-11-21T08:19:00.753Z,99986.53
2022-11-21T08:20:04.256Z,99985.56
2022-11-21T08:21:05.885Z,99986.53
2022-11-21T08:22:08.359Z,99996.84
2022-11-21T08:23:10.754Z,99995.16
2022-11-21T08:24:14.715Z,100004.63
2022-11-21T08:25:18.797Z,100003.66
2022-11-21T08:26:21.355Z,100000.91
2022-11-21T08:27:24.350Z,100000.06
2022-11-21T08:28:26.863Z,100003.31
2022-11-21T08:29:28.670Z,100002.31
2022-11-21T08:30:32.041Z,100014.56
2022-11-21T08:31:33.552Z,100001.38
2022-11-21T08:32:36.123Z,99997.88
2022-11-21T08:33:37.716Z,99996.09
2022-11-21T08:34:40.210Z,99993.44
2022-11-21T08:35:42.150Z,99992.47
2022-11-21T08:36:44.689Z,99993.31
2022-11-21T08:37:47.165Z,99993.19
2022-11-21T08:38:48.783Z,99992.22
2022-11-21T08:39:51.257Z,99985.16
2022-11-21T08:41:13.353Z,99989.44
2022-11-21T08:42:18.904Z,99995.56
2022-11-21T08:43:20.410Z,99995.56
2022-11-21T08:44:22.894Z,99991.97
2022-11-21T08:45:25.820Z,99991.97
2022-11-21T08:46:28.128Z,99991.97
2022-11-21T08:47:33.250Z,99989.34
2022-11-21T08:48:34.920Z,100001.59
2022-11-21T08:49:37.369Z,99993.66
2022-11-21T08:50:39.224Z,99993.66
2022-11-21T08:51:41.707Z,99990.28
2022-11-21T08:52:44.536Z,99989.34
2022-11-21T08:53:47.030Z,99984.06
2022-11-21T08:54:49.567Z,99986.69
2022-11-21T08:55:51.083Z,99987.41
2022-11-21T08:56:55.164Z,99989.09
2022-11-21T08:57:57.761Z,99993.41
2022-11-21T08:58:59.516Z,99989.78
2022-11-21T09:00:02.005Z,99988.81
2022-11-21T09:01:06.238Z,99986.06
2022-11-21T09:02:11.870Z,99985.94
2022-11-21T09:03:15.796Z,99980.66
2022-11-21T09:04:21.697Z,99988.56
2022-11-21T09:05:24.542Z,99986.66
2022-11-21T09:06:26.097Z,99984.81
2022-11-21T09:07:28.671Z,99985.66
2022-11-21T09:08:30.413Z,99982.06
2022-11-21T09:09:33.822Z,99982.78
2022-11-21T09:10:35.947Z,99987.94
2022-11-21T09:11:38.417Z,99973.78
2022-11-21T09:12:42.343Z,99971.00
2022-11-21T09:14:04.791Z,99968.22
2022-11-21T09:15:26.024Z,99974.09
2022-11-21T09:16:46.477Z,99969.50
2022-11-21T09:18:03.443Z,99960.63
2022-11-21T09:19:05.877Z,99956.88
2022-11-21T09:20:09.484Z,99962.88
2022-11-21T09:21:14.406Z,99962.75
2022-11-21T09:22:16.851Z,99962.75
2022-11-21T09:23:19.337Z,99960.81
2022-11-21T09:24:21.927Z,99962.50
2022-11-21T09:25:23.448Z,99952.63
2022-11-21T09:26:25.927Z,99950.72
2022-11-21T09:27:27.675Z,99950.56
2022-11-21T09:28:31.522Z,99950.44
2022-11-21T09:29:33.990Z,99958.13
2022-11-21T09:30:36.661Z,99950.88
2022-11-21T09:31:39.347Z,99948.97
2022-11-21T09:32:41.851Z,99950.63
2022-11-21T09:33:44.412Z,99945.31
2022-11-21T09:34:47.058Z,99950.34
2022-11-21T09:35:48.564Z,99944.94
2022-11-21T09:36:51.032Z,99943.16
2022-11-21T09:37:52.874Z,99948.44
2022-11-21T09:38:55.380Z,99953.47
2022-11-21T09:39:56.925Z,99949.81
2022-11-21T09:41:32.280Z,99947.19
2022-11-21T09:42:54.391Z,99954.16
2022-11-21T09:44:04.300Z,99952.63
2022-11-21T09:45:09.990Z,99949.28
2022-11-21T09:46:16.001Z,99951.06
2022-11-21T09:47:22.987Z,99958.16
2022-11-21T09:49:23.566Z,99953.72
2022-11-21T09:50:31.995Z,99954.56
2022-11-21T09:51:38.378Z,99952.03
2022-11-21T09:52:47.016Z,99950.34
2022-11-21T09:53:57.975Z,99946.75
2022-11-21T09:55:05.587Z,99945.06
2022-11-21T09:56:12.728Z,99939.91
2022-11-21T09:57:17.022Z,99940.03
2022-11-21T09:58:27.100Z,99947.97
2022-11-21T09:59:35.560Z,99937.53
2022-11-21T10:00:38.244Z,99945.31
2022-11-21T10:01:40.827Z,99946.06
2022-11-21T10:02:43.472Z,99940.63
2022-11-21T10:03:48.261Z,99938.69
2022-11-21T10:04:51.461Z,99942.03
2022-11-21T10:05:57.549Z,99940.09
2022-11-21T10:07:05.362Z,99933.72
2022-11-21T10:08:17.155Z,99937.91
2022-11-21T10:09:28.508Z,99930.66
2022-11-21T10:10:46.055Z,99934.03
2022-11-21T10:12:13.388Z,99930.53
2022-11-21T10:13:26.451Z,99928.97
2022-11-21T10:14:45.805Z,99933.56
2022-11-21T10:15:59.712Z,99933.72
2022-11-21T10:17:14.124Z,99930.09
2022-11-21T10:18:36.912Z,99927.31
2022-11-21T10:19:57.649Z,99920.94
2022-11-21T10:21:07.539Z,99918.97
2022-11-21T10:22:30.771Z,99922.19
2022-11-21T10:23:44.714Z,99920.97
2022-11-21T10:24:57.504Z,99919.84
2022-11-21T10:26:15.567Z,99914.56
2022-11-21T10:27:22.616Z,99915.41
2022-11-21T10:28:41.828Z,99908.31
2022-11-21T10:29:53.175Z,99904.13
2022-11-21T10:31:00.017Z,99906.63
2022-11-21T10:32:04.747Z,99897.03
2022-11-21T10:33:16.024Z,99902.19
2022-11-21T10:34:22.478Z,99899.53
2022-11-21T10:35:27.450Z,99895.09
2022-11-21T10:36:37.501Z,99899.53
2022-11-21T10:37:45.658Z,99892.44
2022-11-21T10:38:50.202Z,99888.84
2022-11-21T10:39:55.570Z,99890.38
2022-11-21T10:41:04.472Z,99891.06
2022-11-21T10:42:20.255Z,99890.78
2022-11-21T10:43:53.891Z,99889.72
2022-11-21T10:45:19.080Z,99887.88
2022-11-21T10:46:20.910Z,99883.44
2022-11-21T10:47:28.307Z,99882.47
2022-11-21T10:48:30.821Z,99874.53
2022-11-21T10:49:34.367Z,99869.25
2022-11-21T10:50:48.367Z,99868.28
2022-11-21T10:51:57.582Z,99864.06
2022-11-21T10:53:29.756Z,99867.56
2022-11-21T10:54:34.319Z,99861.41
2022-11-21T10:55:36.866Z,99869.34
2022-11-21T10:56:38.790Z,99867.56
2022-11-21T10:57:45.385Z,99872.84
2022-11-21T10:58:50.085Z,99867.56
2022-11-21T11:00:02.165Z,99870.34
2022-11-21T11:01:21.577Z,99859.19
2022-11-21T11:02:26.003Z,99858.47
2022-11-21T11:03:30.005Z,99851.66
2022-11-21T11:04:43.917Z,99853.63
2022-11-21T11:05:57.222Z,99850.13
2022-11-21T11:07:21.327Z,99854.47
2022-11-21T11:08:23.866Z,99849.84
2022-11-21T11:09:31.709Z,99845.41
2022-11-21T11:10:36.144Z,99846.94
2022-11-21T11:11:38.630Z,99835.25
2022-11-21T11:13:02.182Z,99833.44
2022-11-21T11:14:15.593Z,99821.06
2022-11-21T11:15:21.708Z,99828.16
2022-11-21T11:16:26.043Z,99824.81
2022-11-21T11:17:29.906Z,99823.13
2022-11-21T11:18:35.212Z,99819.66
2022-11-21T11:19:40.311Z,99823.28
2022-11-21T11:20:45.382Z,99819.06
2022-11-21T11:21:49.552Z,99817.53
2022-11-21T11:22:51.290Z,99817.53
2022-11-21T11:23:55.446Z,99814.22
2022-11-21T11:25:00.479Z,99809.03
2022-11-21T11:26:03.491Z,99804.72
2022-11-21T11:27:05.982Z,99797.78
2022-11-21T11:28:08.118Z,99794.28
2022-11-21T11:29:15.435Z,99793.44
2022-11-21T11:30:21.226Z,99793.44
2022-11-21T11:31:22.775Z,99792.59
2022-11-21T11:32:25.491Z,99789.00
2022-11-21T11:33:32.972Z,99791.50
2022-11-21T11:34:41.004Z,99791.50
2022-11-21T11:35:43.579Z,99780.66
2022-11-21T11:37:03.931Z,99773.41
2022-11-21T11:38:10.165Z,99777.59
2022-11-21T11:39:21.748Z,99774.00
2022-11-21T11:40:29.594Z,99766.91
2022-11-21T11:42:16.442Z,99766.75
2022-11-21T11:43:52.273Z,99767.31
2022-11-21T11:45:33.322Z,99763.69
2022-11-21T11:47:03.526Z,99761.16
2022-11-21T11:48:09.893Z,99761.72
2022-11-21T11:49:21.075Z,99756.44
2022-11-21T11:50:26.926Z,99763.41
2022-11-21T11:51:33.885Z,99764.09
2022-11-21T11:52:44.179Z,99757.84
2022-11-21T11:53:50.814Z,99753.41
2022-11-21T11:54:59.018Z,99752.28
2022-11-21T11:56:06.091Z,99754.81
2022-11-21T11:57:09.648Z,99751.88
2022-11-21T11:58:21.429Z,99754.09
2022-11-21T11:59:29.380Z,99737.81
2022-11-21T12:00:39.244Z,99739.19
2022-11-21T12:01:50.140Z,99740.56
2022-11-21T12:02:59.754Z,99738.47
2022-11-21T12:04:07.076Z,99740.84
2022-11-21T12:05:15.589Z,99734.47
2022-11-21T12:06:21.938Z,99738.63
2022-11-21T12:08:33.034Z,99729.56
2022-11-21T12:08:58.972Z,99728.59
2022-11-21T12:10:06.832Z,99730.41
2022-11-21T12:11:41.805Z,99724.16
2022-11-21T12:12:49.973Z,99715.22
2022-11-21T12:13:55.621Z,99716.91
2022-11-21T12:15:30.932Z,99713.13
2022-11-21T12:16:34.999Z,99712.03
2022-11-21T12:17:43.066Z,99706.75
2022-11-21T12:18:54.261Z,99705.91
2022-11-21T12:19:58.779Z,99706.03
2022-11-21T12:21:08.096Z,99713.00
2022-11-21T12:22:12.514Z,99705.19
2022-11-21T12:23:15.942Z,99706.88
2022-11-21T12:24:20.964Z,99700.75
2022-11-21T12:25:30.013Z,99699.06
2022-11-21T12:26:42.250Z,99693.75
2022-11-21T12:27:50.551Z,99686.81